createdAt,value
2018-01-23T00:01:16.712Z,15.00
2018-01-23T00:03:44.213Z,18.40
2018-01-23T00:06:11.706Z,11.85
2018-01-23T00:08:39.186Z,20.70
2018-01-23T00:11:06.670Z,16.55
2018-01-23T00:13:34.158Z,8.88
2018-01-23T00:16:01.689Z,15.80
2018-01-23T00:20:52.356Z,11.90
2018-01-23T00:23:19.834Z,19.85
2018-01-23T00:25:47.487Z,17.85
2018-01-23T00:28:14.988Z,24.63
2018-01-23T00:30:42.495Z,14.70
2018-01-23T00:33:10.125Z,11.48
2018-01-23T00:35:37.629Z,15.95
2018-01-23T00:38:05.191Z,18.55
2018-01-23T00:40:32.694Z,17.40
2018-01-23T00:43:00.207Z,24.00
2018-01-23T00:45:28.641Z,18.40
2018-01-23T00:47:56.126Z,17.02
2018-01-23T00:50:23.615Z,14.52
2018-01-23T00:52:51.120Z,19.50
2018-01-23T00:55:18.639Z,21.30
2018-01-23T00:57:46.145Z,19.42
2018-01-23T01:00:13.644Z,17.90
2018-01-23T01:02:42.085Z,14.65
2018-01-23T01:05:10.326Z,17.85
2018-01-23T01:07:37.953Z,19.05
2018-01-23T01:10:05.461Z,30.95
2018-01-23T01:12:32.953Z,18.85
2018-01-23T01:15:00.453Z,19.65
2018-01-23T01:17:27.937Z,14.10
2018-01-23T01:19:55.545Z,20.88
2018-01-23T01:22:23.025Z,16.10
2018-01-23T01:24:50.566Z,15.38
2018-01-23T01:27:18.045Z,22.08
2018-01-23T01:29:47.519Z,14.48
2018-01-23T01:32:15.011Z,13.43
2018-01-23T01:34:42.502Z,11.93
2018-01-23T01:37:10.100Z,17.45
2018-01-23T01:39:37.589Z,12.95
2018-01-23T01:42:05.069Z,14.80
2018-01-23T01:44:32.573Z,19.37
2018-01-23T01:47:00.058Z,29.40
2018-01-23T01:49:28.494Z,17.85
2018-01-23T01:51:55.999Z,22.05
2018-01-23T01:54:23.529Z,16.23
2018-01-23T01:56:51.047Z,13.75
2018-01-23T01:59:18.540Z,19.02
2018-01-23T02:01:46.022Z,17.05
2018-01-23T02:04:13.508Z,15.95
2018-01-23T02:06:40.989Z,13.40
2018-01-23T02:09:08.482Z,19.15
2018-01-23T02:11:35.969Z,13.48
2018-01-23T02:14:03.541Z,16.70
2018-01-23T02:16:31.023Z,16.33
2018-01-23T02:18:58.538Z,14.75
2018-01-23T02:21:26.057Z,20.42
2018-01-23T02:23:53.547Z,15.38
2018-01-23T02:26:21.098Z,15.75
2018-01-23T02:28:48.746Z,23.92
2018-01-23T02:31:16.228Z,19.60
2018-01-23T02:33:43.729Z,16.12
2018-01-23T02:36:11.224Z,24.27
2018-01-23T02:38:38.718Z,13.90
2018-01-23T02:41:06.206Z,17.50
2018-01-23T02:43:33.697Z,17.90
2018-01-23T02:46:01.199Z,16.67
2018-01-23T02:48:30.679Z,16.62
2018-01-23T02:50:58.161Z,13.38
2018-01-23T02:53:25.910Z,10.48
2018-01-23T02:55:53.391Z,17.37
2018-01-23T02:58:20.872Z,17.90
2018-01-23T03:00:48.362Z,12.85
2018-01-23T03:03:15.865Z,11.60
2018-01-23T03:05:43.346Z,16.00
2018-01-23T03:08:10.849Z,9.88
2018-01-23T03:10:38.441Z,15.70
2018-01-23T03:13:05.947Z,15.18
2018-01-23T03:15:33.420Z,14.43
2018-01-23T03:18:00.904Z,14.25
2018-01-23T03:20:28.398Z,14.20
2018-01-23T03:22:55.885Z,17.85
2018-01-23T03:25:23.369Z,14.10
2018-01-23T03:27:50.893Z,12.20
2018-01-23T03:30:18.379Z,9.63
2018-01-23T03:32:45.879Z,9.43
2018-01-23T03:35:13.385Z,13.68
2018-01-23T03:37:40.898Z,13.20
2018-01-23T03:40:08.402Z,8.77
2018-01-23T03:42:35.892Z,12.77
2018-01-23T03:45:03.811Z,7.75
2018-01-23T03:47:31.295Z,10.13
2018-01-23T03:49:58.795Z,15.18
2018-01-23T03:52:26.267Z,26.30
2018-01-23T03:54:53.838Z,10.20
2018-01-23T03:57:21.354Z,10.55
2018-01-23T03:59:48.839Z,9.23
2018-01-23T04:02:16.326Z,7.43
2018-01-23T04:04:43.815Z,10.95
2018-01-23T04:07:11.326Z,10.00
2018-01-23T04:09:39.784Z,13.15
2018-01-23T04:12:07.359Z,4.60
2018-01-23T04:14:34.847Z,12.57
2018-01-23T04:17:02.146Z,10.88
2018-01-23T04:19:29.732Z,4.37
2018-01-23T04:21:57.233Z,9.30
2018-01-23T04:24:24.774Z,9.70
2018-01-23T04:26:52.513Z,10.82
2018-01-23T04:29:20.007Z,17.62
2018-01-23T04:31:47.502Z,11.02
2018-01-23T04:34:14.812Z,8.52
2018-01-23T04:36:42.311Z,13.20
2018-01-23T04:39:09.798Z,8.48
2018-01-23T04:41:37.359Z,9.30
2018-01-23T04:44:04.854Z,8.52
2018-01-23T04:46:32.353Z,7.82
2018-01-23T04:48:59.932Z,10.32
2018-01-23T04:51:27.417Z,7.10
2018-01-23T04:53:54.896Z,14.05
2018-01-23T04:56:22.384Z,14.95
2018-01-23T04:58:49.889Z,12.50
2018-01-23T05:01:19.394Z,13.77
2018-01-23T05:03:46.877Z,15.00
2018-01-23T05:06:14.384Z,10.20
2018-01-23T05:08:41.874Z,10.35
2018-01-23T05:11:09.376Z,9.88
2018-01-23T05:13:36.861Z,9.27
2018-01-23T05:16:04.362Z,13.20
2018-01-23T05:18:31.848Z,10.63
2018-01-23T05:20:59.354Z,10.70
2018-01-23T05:23:26.841Z,10.60
2018-01-23T05:25:54.382Z,19.20
2018-01-23T05:28:22.001Z,17.50
2018-01-23T05:30:49.505Z,11.88
2018-01-23T05:33:17.913Z,6.15
2018-01-23T05:35:45.395Z,6.75
2018-01-23T05:38:12.893Z,8.85
2018-01-23T05:40:40.390Z,6.20
2018-01-23T05:43:07.936Z,13.57
2018-01-23T05:45:35.485Z,8.73
2018-01-23T05:48:02.981Z,16.02
2018-01-23T05:50:30.486Z,6.12
2018-01-23T05:52:57.977Z,12.45
2018-01-23T05:55:25.472Z,14.00
2018-01-23T05:57:52.990Z,11.40
2018-01-23T06:00:20.489Z,12.40
2018-01-23T06:02:47.981Z,10.60
2018-01-23T06:05:15.470Z,12.02
2018-01-23T06:07:42.957Z,9.00
2018-01-23T06:10:10.438Z,16.75
2018-01-23T06:12:37.925Z,14.52
2018-01-23T06:15:05.422Z,12.13
2018-01-23T06:17:33.110Z,10.80
2018-01-23T06:20:00.646Z,24.27
2018-01-23T06:22:28.154Z,13.05
2018-01-23T06:24:55.642Z,12.55
2018-01-23T06:27:23.156Z,11.98
2018-01-23T06:29:50.641Z,14.52
2018-01-23T06:32:18.132Z,19.35
2018-01-23T06:34:45.620Z,18.37
2018-01-23T06:37:13.358Z,10.13
2018-01-23T06:39:40.866Z,13.50
2018-01-23T06:42:08.346Z,15.30
2018-01-23T06:44:35.857Z,12.63
2018-01-23T06:47:03.342Z,16.90
2018-01-23T06:49:31.235Z,14.50
2018-01-23T06:51:59.803Z,13.68
2018-01-23T06:54:28.414Z,15.93
2018-01-23T06:56:55.913Z,14.60
2018-01-23T06:59:24.405Z,16.60
2018-01-23T07:01:51.893Z,15.73
2018-01-23T07:04:19.405Z,13.55
2018-01-23T07:06:46.893Z,14.00
2018-01-23T07:09:14.406Z,10.60
2018-01-23T07:11:41.894Z,15.48
2018-01-23T07:14:09.411Z,21.80
2018-01-23T07:16:37.395Z,20.48
2018-01-23T07:19:04.917Z,18.35
2018-01-23T07:21:32.410Z,13.07
2018-01-23T07:23:59.921Z,11.68
2018-01-23T07:26:27.418Z,18.02
2018-01-23T07:28:54.906Z,14.45
2018-01-23T07:31:22.206Z,16.20
2018-01-23T07:33:49.744Z,12.60
2018-01-23T07:36:17.234Z,16.87
2018-01-23T07:38:44.805Z,23.85
2018-01-23T07:41:12.309Z,11.02
2018-01-23T07:43:39.796Z,13.60
2018-01-23T07:46:07.282Z,16.37
2018-01-23T07:48:34.769Z,15.35
2018-01-23T07:51:02.289Z,18.20
2018-01-23T07:53:29.806Z,13.35
2018-01-23T07:55:57.296Z,10.07
2018-01-23T07:58:24.782Z,14.48
2018-01-23T08:00:52.265Z,11.15
2018-01-23T08:03:19.758Z,12.50
2018-01-23T08:05:47.243Z,14.10
2018-01-23T08:08:14.740Z,14.23
2018-01-23T08:10:42.222Z,14.75
2018-01-23T08:13:09.713Z,10.48
2018-01-23T08:15:37.567Z,11.50
2018-01-23T08:18:05.046Z,9.05
2018-01-23T08:20:32.521Z,7.60
2018-01-23T08:23:00.022Z,11.38
2018-01-23T08:25:27.518Z,11.88
2018-01-23T08:27:55.049Z,12.73
2018-01-23T08:30:22.557Z,10.13
2018-01-23T08:32:50.049Z,14.82
2018-01-23T08:35:17.534Z,9.75
2018-01-23T08:37:45.021Z,6.80
2018-01-23T08:40:12.511Z,10.77
2018-01-23T08:42:40.009Z,12.45
2018-01-23T08:45:07.531Z,10.30
2018-01-23T08:47:35.177Z,9.57
2018-01-23T08:50:02.493Z,10.70
2018-01-23T08:52:29.997Z,10.13
2018-01-23T08:54:57.485Z,12.20
2018-01-23T08:57:24.970Z,10.43
2018-01-23T08:59:52.492Z,8.68
2018-01-23T09:02:19.981Z,12.10
2018-01-23T09:04:47.493Z,9.40
2018-01-23T09:07:15.001Z,12.52
2018-01-23T09:09:43.249Z,8.43
2018-01-23T09:12:10.730Z,14.00
2018-01-23T09:14:38.230Z,7.07
2018-01-23T09:17:05.717Z,13.35
2018-01-23T09:19:33.218Z,8.93
2018-01-23T09:22:00.713Z,10.35
2018-01-23T09:24:28.194Z,9.90
2018-01-23T09:26:55.683Z,5.35
2018-01-23T09:29:23.169Z,12.73
2018-01-23T09:31:50.653Z,7.35
2018-01-23T09:34:17.940Z,9.00
2018-01-23T09:36:45.419Z,8.15
2018-01-23T09:39:12.898Z,6.80
2018-01-23T09:41:40.385Z,6.20
2018-01-23T09:44:07.861Z,6.93
2018-01-23T09:46:35.370Z,10.43
2018-01-23T09:49:02.854Z,4.37
2018-01-23T09:51:31.317Z,10.75
2018-01-23T09:53:58.805Z,8.05
2018-01-23T09:56:26.297Z,16.17
2018-01-23T09:58:53.777Z,5.43
2018-01-23T10:01:21.280Z,3.00
2018-01-23T10:03:48.757Z,2.55
2018-01-23T10:06:16.234Z,5.40
2018-01-23T10:08:43.723Z,3.35
2018-01-23T10:11:11.205Z,4.72
2018-01-23T10:13:38.729Z,4.18
2018-01-23T10:16:06.203Z,3.62
2018-01-23T10:18:33.697Z,4.50
2018-01-23T10:21:01.346Z,8.93
2018-01-23T10:23:28.829Z,3.22
2018-01-23T10:25:56.310Z,4.37
2018-01-23T10:28:24.738Z,5.05
2018-01-23T10:30:52.218Z,3.28
2018-01-23T10:33:19.717Z,4.87
2018-01-23T10:35:47.199Z,5.97
2018-01-23T10:38:15.774Z,5.43
2018-01-23T10:40:43.248Z,3.08
2018-01-23T10:43:10.739Z,4.07
2018-01-23T10:45:38.258Z,5.25
2018-01-23T10:48:05.749Z,4.95
2018-01-23T10:50:33.606Z,6.97
2018-01-23T10:53:00.894Z,5.18
2018-01-23T10:55:28.205Z,3.95
2018-01-23T10:57:55.694Z,5.93
2018-01-23T11:00:23.185Z,2.28
2018-01-23T11:02:50.675Z,5.62
2018-01-23T11:05:18.169Z,6.82
2018-01-23T11:07:45.752Z,7.45
2018-01-23T11:10:13.254Z,2.87
2018-01-23T11:12:40.731Z,2.42
2018-01-23T11:15:08.258Z,5.95
2018-01-23T11:17:35.733Z,4.72
2018-01-23T11:20:03.234Z,7.05
2018-01-23T11:22:30.717Z,4.75
2018-01-23T11:24:58.205Z,2.10
2018-01-23T11:27:25.688Z,6.72
2018-01-23T11:29:53.185Z,3.65
2018-01-23T11:32:20.673Z,3.97
2018-01-23T11:34:48.169Z,4.65
2018-01-23T11:37:15.646Z,3.92
2018-01-23T11:39:43.144Z,9.02
2018-01-23T11:42:10.642Z,3.37
2018-01-23T11:44:38.133Z,6.18
2018-01-23T11:47:05.613Z,7.10
2018-01-23T11:49:33.113Z,4.15
2018-01-23T11:52:00.602Z,3.15
2018-01-23T11:54:28.093Z,4.85
2018-01-23T11:56:55.572Z,7.68
2018-01-23T11:59:23.040Z,2.83
2018-01-23T12:01:50.524Z,5.50
2018-01-23T12:04:18.006Z,3.97
2018-01-23T12:06:45.487Z,5.12
2018-01-23T12:09:13.917Z,7.00
2018-01-23T12:11:41.398Z,7.10
2018-01-23T12:14:08.873Z,2.00
2018-01-23T12:16:36.357Z,6.75
2018-01-23T12:19:03.845Z,6.78
2018-01-23T12:21:31.337Z,4.50
2018-01-23T12:23:58.825Z,4.90
2018-01-23T12:26:26.301Z,5.65
2018-01-23T12:28:53.789Z,6.78
2018-01-23T12:31:21.300Z,3.70
2018-01-23T12:33:48.784Z,6.10
2018-01-23T12:36:16.278Z,5.45
2018-01-23T12:38:43.578Z,8.27
2018-01-23T12:41:11.081Z,6.15
2018-01-23T12:43:38.566Z,4.25
2018-01-23T12:46:06.061Z,4.20
2018-01-23T12:48:33.542Z,2.55
2018-01-23T12:51:01.053Z,4.93
2018-01-23T12:53:28.533Z,4.95
2018-01-23T12:55:56.033Z,6.87
2018-01-23T12:58:23.509Z,7.03
2018-01-23T13:00:51.019Z,4.07
2018-01-23T13:03:18.497Z,6.12
2018-01-23T13:05:46.023Z,7.82
2018-01-23T13:08:13.507Z,6.60
2018-01-23T13:10:40.997Z,4.30
2018-01-23T13:13:08.481Z,4.18
2018-01-23T13:15:35.979Z,2.40
2018-01-23T13:18:03.460Z,6.40
2018-01-23T13:20:32.940Z,1.95
2018-01-23T13:23:00.417Z,3.87
2018-01-23T13:25:27.908Z,3.78
2018-01-23T13:27:55.394Z,8.88
2018-01-23T13:30:22.889Z,3.55
2018-01-23T13:32:50.372Z,5.15
2018-01-23T13:35:17.897Z,5.45
2018-01-23T13:37:45.384Z,7.82
2018-01-23T13:40:14.830Z,2.30
2018-01-23T13:42:42.313Z,7.28
2018-01-23T13:45:09.910Z,6.47
2018-01-23T13:47:37.406Z,4.07
2018-01-23T13:50:04.915Z,8.82
2018-01-23T13:52:32.406Z,2.97
2018-01-23T13:54:59.905Z,3.47
2018-01-23T13:57:27.382Z,5.43
2018-01-23T13:59:54.887Z,8.02
2018-01-23T14:02:22.833Z,1.52
2018-01-23T14:04:50.317Z,6.78
2018-01-23T14:07:17.793Z,3.47
2018-01-23T14:09:45.282Z,3.15
2018-01-23T14:12:12.762Z,9.95
2018-01-23T14:14:40.243Z,3.85
2018-01-23T14:17:07.740Z,3.12
2018-01-23T14:19:35.217Z,5.62
2018-01-23T14:22:02.695Z,3.25
2018-01-23T14:24:30.190Z,2.65
2018-01-23T14:26:57.673Z,7.15
2018-01-23T14:29:25.160Z,6.43
2018-01-23T14:31:52.633Z,3.40
2018-01-23T14:34:20.116Z,3.70
2018-01-23T14:36:48.898Z,6.72
2018-01-23T14:39:16.377Z,4.87
2018-01-23T14:41:44.331Z,9.40
2018-01-23T14:44:11.626Z,5.70
2018-01-23T14:46:39.109Z,2.67
2018-01-23T14:49:06.594Z,5.22
2018-01-23T14:51:34.068Z,5.90
2018-01-23T14:54:01.558Z,9.73
2018-01-23T14:56:29.038Z,4.60
2018-01-23T14:58:56.525Z,4.72
2018-01-23T15:01:24.003Z,7.37
2018-01-23T15:03:51.498Z,1.90
2018-01-23T15:06:18.995Z,5.05
2018-01-23T15:08:46.679Z,5.18
2018-01-23T15:11:15.142Z,3.45
2018-01-23T15:13:42.617Z,6.70
2018-01-23T15:16:10.099Z,8.10
2018-01-23T15:18:39.330Z,7.30
2018-01-23T15:21:06.642Z,8.55
2018-01-23T15:23:34.198Z,7.85
2018-01-23T15:26:01.733Z,7.40
2018-01-23T15:28:29.216Z,4.87
2018-01-23T15:30:56.766Z,5.35
2018-01-23T15:33:24.412Z,6.97
2018-01-23T15:35:51.905Z,8.25
2018-01-23T15:38:19.395Z,12.20
2018-01-23T15:40:46.905Z,8.02
2018-01-23T15:43:14.480Z,6.10
2018-01-23T15:45:41.985Z,9.40
2018-01-23T15:48:09.471Z,5.37
2018-01-23T15:50:38.918Z,8.52
2018-01-23T15:53:06.397Z,4.72
2018-01-23T15:55:33.909Z,2.97
2018-01-23T15:58:01.410Z,3.65
2018-01-23T16:00:28.896Z,3.72
2018-01-23T16:02:56.370Z,4.15
2018-01-23T16:05:23.850Z,4.47
2018-01-23T16:07:51.334Z,7.72
2018-01-23T16:10:18.841Z,10.95
2018-01-23T16:12:46.333Z,3.70
2018-01-23T16:15:13.833Z,4.90
2018-01-23T16:17:41.314Z,4.20
2018-01-23T16:20:08.805Z,8.77
2018-01-23T16:22:36.289Z,6.12
2018-01-23T16:25:04.175Z,6.18
2018-01-23T16:27:31.685Z,8.23
2018-01-23T16:29:59.161Z,7.25
2018-01-23T16:32:26.693Z,15.15
2018-01-23T16:34:54.191Z,10.63
2018-01-23T16:37:21.682Z,3.62
2018-01-23T16:39:49.166Z,6.35
2018-01-23T16:42:16.691Z,11.50
2018-01-23T16:44:44.267Z,7.68
2018-01-23T16:47:11.766Z,7.18
2018-01-23T16:49:39.276Z,7.30
2018-01-23T16:52:06.765Z,4.43
2018-01-23T16:54:34.062Z,19.35
2018-01-23T16:57:01.567Z,9.52
2018-01-23T16:59:29.057Z,11.38
2018-01-23T17:01:56.533Z,6.87
2018-01-23T17:04:24.041Z,14.52
2018-01-23T17:06:51.522Z,20.00
2018-01-23T17:09:19.027Z,5.78
2018-01-23T17:11:46.502Z,9.20
2018-01-23T17:14:13.990Z,6.28
2018-01-23T17:16:41.465Z,5.37
2018-01-23T17:19:08.948Z,8.02
2018-01-23T17:21:36.461Z,5.40
2018-01-23T17:24:03.945Z,9.02
2018-01-23T17:26:31.458Z,10.80
2018-01-23T17:28:58.943Z,16.85
2018-01-23T17:31:26.455Z,34.05
2018-01-23T17:33:53.961Z,27.90
2018-01-23T17:36:21.469Z,12.68
2018-01-23T17:38:48.962Z,19.80
2018-01-23T17:41:16.460Z,14.75
2018-01-23T17:43:44.733Z,10.88
2018-01-23T17:46:12.233Z,11.12
2018-01-23T17:48:39.710Z,5.18
2018-01-23T17:51:07.204Z,6.03
2018-01-23T17:53:34.705Z,5.20
2018-01-23T17:56:02.229Z,10.05
2018-01-23T17:58:29.718Z,11.12
2018-01-23T18:00:57.304Z,11.77
2018-01-23T18:03:24.786Z,9.68
2018-01-23T18:05:52.354Z,6.93
2018-01-23T18:08:19.831Z,7.10
2018-01-23T18:10:47.319Z,8.88
2018-01-23T18:13:14.897Z,5.25
2018-01-23T18:15:42.389Z,6.75
2018-01-23T18:18:11.859Z,9.07
2018-01-23T18:20:39.337Z,5.90
2018-01-23T18:23:06.838Z,9.80
2018-01-23T18:25:34.133Z,8.60
2018-01-23T18:28:01.681Z,9.15
2018-01-23T18:30:29.164Z,6.93
2018-01-23T18:32:56.651Z,9.10
2018-01-23T18:35:24.266Z,5.87
2018-01-23T18:37:51.749Z,6.05
2018-01-23T18:40:19.251Z,8.80
2018-01-23T18:42:46.750Z,4.18
2018-01-23T18:45:14.241Z,6.37
2018-01-23T18:47:41.769Z,5.57
2018-01-23T18:50:09.250Z,7.97
2018-01-23T18:52:36.738Z,3.75
2018-01-23T18:55:04.223Z,2.83
2018-01-23T18:57:31.726Z,4.50
2018-01-23T18:59:59.327Z,3.40
2018-01-23T19:02:26.807Z,3.55
2018-01-23T19:04:54.287Z,5.60
2018-01-23T19:07:21.761Z,7.45
2018-01-23T19:09:49.311Z,9.82
2018-01-23T19:12:16.801Z,5.28
2018-01-23T19:14:50.881Z,4.75
2018-01-23T19:17:18.365Z,6.28
2018-01-23T19:19:45.856Z,8.85
2018-01-23T19:22:13.334Z,4.37
2018-01-23T19:24:40.940Z,7.90
2018-01-23T19:27:08.454Z,7.85
2018-01-23T19:29:36.133Z,4.35
2018-01-23T19:32:03.638Z,4.85
2018-01-23T19:34:31.122Z,9.13
2018-01-23T19:36:58.622Z,5.72
2018-01-23T19:39:26.244Z,6.90
2018-01-23T19:41:53.742Z,9.18
2018-01-23T19:44:21.296Z,7.20
2018-01-23T19:46:48.793Z,3.92
2018-01-23T19:49:16.289Z,10.70
2018-01-23T19:51:43.808Z,10.77
2018-01-23T19:54:11.345Z,5.87
2018-01-23T19:56:38.847Z,5.25
2018-01-23T19:59:06.369Z,5.82
2018-01-23T20:01:33.901Z,7.07
2018-01-23T20:04:01.559Z,7.90
2018-01-23T20:06:31.001Z,3.30
2018-01-23T20:08:58.603Z,6.35
2018-01-23T20:11:26.093Z,10.65
2018-01-23T20:13:53.573Z,4.80
2018-01-23T20:16:21.993Z,8.77
2018-01-23T20:18:49.497Z,7.70
2018-01-23T20:21:16.981Z,5.75
2018-01-23T20:23:44.471Z,6.10
2018-01-23T20:26:11.967Z,5.47
2018-01-23T20:28:39.685Z,5.00
2018-01-23T20:31:07.170Z,15.40
2018-01-23T20:33:34.654Z,6.20
2018-01-23T20:36:02.149Z,5.50
2018-01-23T20:38:29.823Z,4.45
2018-01-23T20:40:57.405Z,7.70
2018-01-23T20:43:24.883Z,7.68
2018-01-23T20:45:52.362Z,4.87
2018-01-23T20:48:20.869Z,10.23
2018-01-23T20:50:48.353Z,8.07
2018-01-23T20:53:15.852Z,5.62
2018-01-23T20:55:43.736Z,9.20
2018-01-23T20:58:11.235Z,22.52
2018-01-23T21:00:38.722Z,7.87
2018-01-23T21:03:06.201Z,7.75
2018-01-23T21:05:33.686Z,16.15
2018-01-23T21:08:01.002Z,20.25
2018-01-23T21:10:28.490Z,15.80
2018-01-23T21:12:55.977Z,18.02
2018-01-23T21:15:23.461Z,9.70
2018-01-23T21:17:52.186Z,17.55
2018-01-23T21:20:19.783Z,10.18
2018-01-23T21:22:47.338Z,11.50
2018-01-23T21:25:14.827Z,10.10
2018-01-23T21:27:42.335Z,8.32
2018-01-23T21:30:09.715Z,8.98
2018-01-23T21:32:37.253Z,8.55
2018-01-23T21:35:04.742Z,12.57
2018-01-23T21:37:32.252Z,11.15
2018-01-23T21:39:59.750Z,13.05
2018-01-23T21:42:27.258Z,8.98
2018-01-23T21:44:55.705Z,10.60
2018-01-23T21:47:24.204Z,14.23
2018-01-23T21:49:51.803Z,13.65
2018-01-23T21:52:19.314Z,23.83
2018-01-23T21:54:46.809Z,14.05
2018-01-23T21:57:14.297Z,10.05
2018-01-23T21:59:41.790Z,10.32
2018-01-23T22:02:09.273Z,13.60
2018-01-23T22:04:36.756Z,10.30
2018-01-23T22:07:04.237Z,16.23
2018-01-23T22:09:31.725Z,12.57
2018-01-23T22:11:59.214Z,11.05
2018-01-23T22:14:26.693Z,14.40
2018-01-23T22:16:55.381Z,12.75
2018-01-23T22:19:22.874Z,10.98
2018-01-23T22:21:51.303Z,13.88
2018-01-23T22:24:19.745Z,11.50
2018-01-23T22:26:47.225Z,8.13
2018-01-23T22:29:14.710Z,13.73
2018-01-23T22:31:42.195Z,8.02
2018-01-23T22:34:09.681Z,13.15
2018-01-23T22:36:37.157Z,15.65
2018-01-23T22:39:04.230Z,8.75
2018-01-23T22:41:31.832Z,8.43
2018-01-23T22:43:59.345Z,10.93
2018-01-23T22:46:26.829Z,7.07
2018-01-23T22:48:54.345Z,9.88
2018-01-23T22:51:21.841Z,8.43
2018-01-23T22:53:49.332Z,9.10
2018-01-23T22:56:16.813Z,6.35
2018-01-23T22:58:44.313Z,8.70
2018-01-23T23:01:11.861Z,5.95
2018-01-23T23:03:39.342Z,6.43
2018-01-23T23:06:06.822Z,7.35
2018-01-23T23:08:34.313Z,4.60
2018-01-23T23:11:01.794Z,5.43
2018-01-23T23:13:29.272Z,6.10
2018-01-23T23:15:56.823Z,6.53
2018-01-23T23:18:24.315Z,9.15
2018-01-23T23:20:52.109Z,4.03
2018-01-23T23:23:19.598Z,6.78
2018-01-23T23:25:47.094Z,8.32
2018-01-23T23:28:14.619Z,10.20
2018-01-23T23:30:42.110Z,5.05
2018-01-23T23:33:09.638Z,14.90
2018-01-23T23:35:37.122Z,8.90
2018-01-23T23:38:04.613Z,5.00
2018-01-23T23:40:32.091Z,4.35
2018-01-23T23:42:59.570Z,3.80
2018-01-23T23:45:27.081Z,6.62
2018-01-23T23:47:54.583Z,6.80
2018-01-23T23:50:22.062Z,7.47
2018-01-23T23:52:49.576Z,7.37
2018-01-23T23:55:18.081Z,7.15
2018-01-23T23:57:45.574Z,5.35
